Terminal Aerodrome Forecast
Issued by NWS Brownsville, TX

Home | Current Version | Previous Version | Text Only | Print | Product List | Glossary On
Versions: 1 2 3 4 5 6 7 8 9 10 11 12 13 14 15 16 17 18 19 20 21
618
FTUS44 KBRO 021057 AAB
TAFBRO
TAF AMD
KBRO 021057Z 0211/0306 07008KT 4SM BR OVC005
     FM021200 36015KT 5SM BR VCSH OVC010
     FM021700 36013G20KT 6SM BR VCSH OVC018=

USA.gov is the U.S. government's official web portal to all federal, state and local government web resources and services.